Angels Camp, California
Current Conditions -  °F | °C
As of 10:15 PM on Thursday 18 Dec 2014 (Local Time) from KO22 Reporting Station
Few Clouds Few Clouds  
Wind Chill: 37°   Ceiling: Unl
Heat Index: 37°   Visibility: 9mi
Dew Point: 37°   Wind: 0mph
Humidity: 100%   Direction: NA
Pressure: 30.18"   Gusts: NA
Location:  38.07°N, 120.54°W
Report Text: KO22 190615Z AUTO 00000KT 9SM FEW110 03/03 A3018 RMK AO1
Loading
Personal Weather Stations






























Interactive Weather Map New forecast layout! Learn more

10-Day Weather Forecast

Advertisements
Track Severe Weather on mobile